createdAt,value
2022-11-17T00:02:15.586Z,91.47
2022-11-17T00:05:18.154Z,91.13
2022-11-17T00:08:22.347Z,90.38
2022-11-17T00:11:24.820Z,90.37
2022-11-17T00:14:33.269Z,90.51
2022-11-17T00:17:35.699Z,90.65
2022-11-17T00:20:57.228Z,90.39
2022-11-17T00:24:01.031Z,90.37
2022-11-17T00:27:03.660Z,90.74
2022-11-17T00:30:07.523Z,90.81
2022-11-17T00:33:28.626Z,91.08
2022-11-17T00:36:31.461Z,91.17
2022-11-17T00:39:35.815Z,90.44
2022-11-17T00:42:38.254Z,89.81
2022-11-17T00:45:40.725Z,90.31
2022-11-17T00:48:43.170Z,90.68
2022-11-17T00:51:45.896Z,90.21
2022-11-17T00:54:49.670Z,90.95
2022-11-17T00:57:52.135Z,90.74
2022-11-17T01:00:54.559Z,90.81
2022-11-17T01:04:05.196Z,90.90
2022-11-17T01:07:07.674Z,90.80
2022-11-17T01:10:11.511Z,90.45
2022-11-17T01:13:13.936Z,90.29
2022-11-17T01:16:18.741Z,90.09
2022-11-17T01:19:22.185Z,90.42
2022-11-17T01:22:24.632Z,90.05
2022-11-17T01:25:28.455Z,90.07
2022-11-17T01:28:31.015Z,90.53
2022-11-17T01:31:35.139Z,90.63
2022-11-17T01:34:37.586Z,89.97
2022-11-17T01:37:40.064Z,90.14
2022-11-17T01:40:43.882Z,89.54
2022-11-17T01:43:49.353Z,89.97
2022-11-17T01:46:54.578Z,90.35
2022-11-17T01:50:03.775Z,89.92
2022-11-17T01:53:11.151Z,89.36
2022-11-17T01:56:20.206Z,89.63
2022-11-17T01:59:28.179Z,90.09
2022-11-17T02:02:30.838Z,89.76
2022-11-17T02:05:42.229Z,88.98
2022-11-17T02:08:46.920Z,89.73
2022-11-17T02:11:51.043Z,89.37
2022-11-17T02:14:54.744Z,89.64
2022-11-17T02:17:58.437Z,89.34
2022-11-17T02:21:21.770Z,89.41
2022-11-17T02:24:59.156Z,89.42
2022-11-17T02:28:17.032Z,89.10
2022-11-17T02:31:26.603Z,89.04
2022-11-17T02:34:38.308Z,89.18
2022-11-17T02:37:47.699Z,89.42
2022-11-17T02:40:55.662Z,89.63
2022-11-17T02:44:05.675Z,90.03
2022-11-17T02:47:12.588Z,89.88
2022-11-17T02:50:17.844Z,89.74
2022-11-17T02:53:22.546Z,89.22
2022-11-17T02:56:24.984Z,89.87
2022-11-17T02:59:33.915Z,89.25
2022-11-17T03:03:08.703Z,88.97
2022-11-17T03:06:23.420Z,89.67
2022-11-17T03:09:38.707Z,89.69
2022-11-17T03:12:46.947Z,89.19
2022-11-17T03:15:55.244Z,88.63
2022-11-17T03:19:09.444Z,89.59
2022-11-17T03:22:17.483Z,88.77
2022-11-17T03:25:23.553Z,90.00
2022-11-17T03:28:30.395Z,89.42
2022-11-17T03:31:35.402Z,89.46
2022-11-17T03:34:42.812Z,89.89
2022-11-17T03:37:49.731Z,89.53
2022-11-17T03:40:55.214Z,89.53
2022-11-17T03:43:59.366Z,89.50
2022-11-17T03:47:05.548Z,88.57
2022-11-17T03:50:13.967Z,88.91
2022-11-17T03:53:16.461Z,89.68
2022-11-17T03:56:31.610Z,89.77
2022-11-17T03:59:43.269Z,89.62
2022-11-17T04:02:54.038Z,89.83
2022-11-17T04:05:56.527Z,88.57
2022-11-17T04:08:59.296Z,88.78
2022-11-17T04:12:20.260Z,89.00
2022-11-17T04:15:52.468Z,89.81
2022-11-17T04:18:58.820Z,88.88
2022-11-17T04:22:01.813Z,89.25
2022-11-17T04:25:05.038Z,89.07
2022-11-17T04:28:27.074Z,89.01
2022-11-17T04:31:31.194Z,88.51
2022-11-17T04:34:35.055Z,88.59
2022-11-17T04:37:37.565Z,89.08
2022-11-17T04:41:00.034Z,88.26
2022-11-17T04:44:04.335Z,89.02
2022-11-17T04:47:07.048Z,88.70
2022-11-17T04:50:10.907Z,88.99
2022-11-17T04:53:13.344Z,89.03
2022-11-17T04:56:15.770Z,89.16
2022-11-17T04:59:18.271Z,89.06
2022-11-17T05:02:20.757Z,88.99
2022-11-17T05:05:24.614Z,89.24
2022-11-17T05:08:27.030Z,89.41
2022-11-17T05:11:49.447Z,89.53
2022-11-17T05:14:52.386Z,89.07
2022-11-17T05:17:54.789Z,89.13
2022-11-17T05:21:02.970Z,88.70
2022-11-17T05:24:06.052Z,88.66
2022-11-17T05:27:08.494Z,88.81
2022-11-17T05:30:12.003Z,89.50
2022-11-17T05:33:14.437Z,89.00
2022-11-17T05:36:19.157Z,89.42
2022-11-17T05:39:21.609Z,89.08
2022-11-17T05:42:24.172Z,89.19
2022-11-17T05:45:26.964Z,89.28
2022-11-17T05:48:29.481Z,89.74
2022-11-17T05:51:33.442Z,89.62
2022-11-17T05:54:36.011Z,89.80
2022-11-17T05:57:38.667Z,89.86
2022-11-17T06:00:41.651Z,89.37
2022-11-17T06:03:50.079Z,89.32
2022-11-17T06:07:02.779Z,89.57
2022-11-17T06:10:06.552Z,89.12
2022-11-17T06:13:09.120Z,88.53
2022-11-17T06:16:15.978Z,88.42
2022-11-17T06:19:22.454Z,88.43
2022-11-17T06:22:27.556Z,88.60
2022-11-17T06:25:30.854Z,88.95
2022-11-17T06:28:35.240Z,88.04
2022-11-17T06:31:39.072Z,87.79
2022-11-17T06:34:56.768Z,87.61
2022-11-17T06:38:00.776Z,88.25
2022-11-17T06:41:07.484Z,88.90
2022-11-17T06:44:15.085Z,87.90
2022-11-17T06:47:17.840Z,87.29
2022-11-17T06:50:20.642Z,88.37
2022-11-17T06:53:26.569Z,87.34
2022-11-17T06:56:40.830Z,87.59
2022-11-17T06:59:47.430Z,86.30
2022-11-17T07:02:50.105Z,87.29
2022-11-17T07:05:52.664Z,86.52
2022-11-17T07:08:56.551Z,87.04
2022-11-17T07:11:59.257Z,86.48
2022-11-17T07:15:02.705Z,85.63
2022-11-17T07:18:06.103Z,85.10
2022-11-17T07:21:10.702Z,86.17
2022-11-17T07:24:14.691Z,85.71
2022-11-17T07:27:21.482Z,85.16
2022-11-17T07:30:24.098Z,85.87
2022-11-17T07:33:27.218Z,86.21
2022-11-17T07:36:31.967Z,85.70
2022-11-17T07:39:35.889Z,85.90
2022-11-17T07:42:38.570Z,87.03
2022-11-17T07:45:44.404Z,85.81
2022-11-17T07:48:47.110Z,86.80
2022-11-17T07:51:50.395Z,86.59
2022-11-17T07:54:54.392Z,85.86
2022-11-17T07:57:58.108Z,85.64
2022-11-17T08:01:05.001Z,85.04
2022-11-17T08:04:07.805Z,86.03
2022-11-17T08:07:10.570Z,85.89
2022-11-17T08:10:15.149Z,84.92
2022-11-17T08:13:17.876Z,85.01
2022-11-17T08:20:19.612Z,84.96
2022-11-17T08:23:37.922Z,84.51
2022-11-17T08:26:41.943Z,84.95
2022-11-17T08:29:44.753Z,84.96
2022-11-17T08:32:52.323Z,84.51
2022-11-17T08:35:57.414Z,84.54
2022-11-17T08:39:00.181Z,84.55
2022-11-17T08:42:04.386Z,84.39
2022-11-17T08:45:08.225Z,84.29
2022-11-17T08:48:10.970Z,84.77
2022-11-17T08:51:17.001Z,84.49
2022-11-17T08:54:19.687Z,84.22
2022-11-17T08:57:23.812Z,84.32
2022-11-17T09:00:26.764Z,83.99
2022-11-17T09:03:29.327Z,83.27
2022-11-17T09:06:31.945Z,82.88
2022-11-17T09:09:34.505Z,82.29
2022-11-17T09:12:38.585Z,82.97
2022-11-17T09:15:41.530Z,81.42
2022-11-17T09:18:44.625Z,80.01
2022-11-17T09:21:48.154Z,79.22
2022-11-17T09:24:50.704Z,79.46
2022-11-17T09:27:54.780Z,78.60
2022-11-17T09:30:59.211Z,79.52
2022-11-17T09:34:05.750Z,77.51
2022-11-17T09:37:08.633Z,77.11
2022-11-17T09:40:15.257Z,77.37
2022-11-17T09:43:27.461Z,77.57
2022-11-17T09:46:40.522Z,76.36
2022-11-17T09:49:58.287Z,76.34
2022-11-17T09:53:05.183Z,73.95
2022-11-17T09:56:10.242Z,73.85
2022-11-17T09:59:18.230Z,73.54
2022-11-17T10:02:20.766Z,72.88
2022-11-17T10:05:28.934Z,70.98
2022-11-17T10:08:37.872Z,67.09
2022-11-17T10:11:42.722Z,64.21
2022-11-17T10:14:49.160Z,62.27
2022-11-17T10:17:52.553Z,60.42
2022-11-17T10:20:55.073Z,60.33
2022-11-17T10:23:59.839Z,60.38
2022-11-17T10:27:03.912Z,59.86
2022-11-17T10:30:21.943Z,60.15
2022-11-17T10:33:34.196Z,57.74
2022-11-17T10:36:36.966Z,59.79
2022-11-17T10:39:41.765Z,58.96
2022-11-17T10:43:18.165Z,60.83
2022-11-17T10:46:32.139Z,61.33
2022-11-17T10:49:40.917Z,58.82
2022-11-17T10:52:43.520Z,59.56
2022-11-17T10:55:46.059Z,61.63
2022-11-17T10:58:59.666Z,62.33
2022-11-17T11:02:28.840Z,64.04
2022-11-17T11:05:31.730Z,63.41
2022-11-17T11:08:50.056Z,59.94
2022-11-17T11:11:57.965Z,55.06
2022-11-17T11:15:03.257Z,54.48
2022-11-17T11:18:15.331Z,55.92
2022-11-17T11:21:31.812Z,60.00
2022-11-17T11:24:43.397Z,59.79
2022-11-17T11:28:03.326Z,61.09
2022-11-17T11:31:16.984Z,58.03
2022-11-17T11:34:46.158Z,54.56
2022-11-17T11:37:59.797Z,52.10
2022-11-17T11:41:15.659Z,55.36
2022-11-17T11:44:40.569Z,52.62
2022-11-17T11:48:03.174Z,51.13
2022-11-17T11:51:14.434Z,53.77
2022-11-17T11:54:27.070Z,56.48
2022-11-17T11:57:35.857Z,58.79
2022-11-17T12:00:43.060Z,59.33
2022-11-17T12:03:54.695Z,62.20
2022-11-17T12:07:05.151Z,63.42
2022-11-17T12:10:19.043Z,64.51
2022-11-17T12:13:23.268Z,63.46
2022-11-17T12:16:31.268Z,63.25
2022-11-17T12:19:50.440Z,62.98
2022-11-17T12:23:10.180Z,64.84
2022-11-17T12:26:22.303Z,65.10
2022-11-17T12:29:46.181Z,65.80
2022-11-17T12:32:54.878Z,65.97
2022-11-17T12:36:17.241Z,64.66
2022-11-17T12:39:52.438Z,64.98
2022-11-17T12:43:20.861Z,64.57
2022-11-17T12:46:27.125Z,63.76
2022-11-17T12:49:36.125Z,64.65
2022-11-17T12:52:50.284Z,65.67
2022-11-17T12:56:15.642Z,66.22
2022-11-17T12:59:37.743Z,66.26
2022-11-17T13:02:59.268Z,67.74
2022-11-17T13:06:33.752Z,67.44
2022-11-17T13:09:36.053Z,68.42
2022-11-17T13:12:38.805Z,66.55
2022-11-17T13:15:43.595Z,64.46
2022-11-17T13:18:47.492Z,65.09
2022-11-17T13:22:02.434Z,65.58
2022-11-17T13:25:22.415Z,66.05
2022-11-17T13:28:29.881Z,67.01
2022-11-17T13:31:34.501Z,67.20
2022-11-17T13:34:45.700Z,68.03
2022-11-17T13:38:01.449Z,68.48
2022-11-17T13:41:05.231Z,69.28
2022-11-17T13:44:13.460Z,69.72
2022-11-17T13:47:21.722Z,68.43
2022-11-17T13:50:37.308Z,70.15
2022-11-17T13:53:42.831Z,70.30
2022-11-17T13:56:52.691Z,71.65
2022-11-17T13:59:55.876Z,70.50
2022-11-17T14:03:03.274Z,69.74
2022-11-17T14:06:07.925Z,71.12
2022-11-17T14:09:10.489Z,71.27
2022-11-17T14:12:16.960Z,71.26
2022-11-17T14:15:24.637Z,72.72
2022-11-17T14:18:32.910Z,70.60
2022-11-17T14:21:35.481Z,71.29
2022-11-17T14:24:39.176Z,71.16
2022-11-17T14:27:41.909Z,72.68
2022-11-17T14:30:47.169Z,73.67
2022-11-17T14:33:51.156Z,73.93
2022-11-17T14:36:56.099Z,74.62
2022-11-17T14:40:00.682Z,76.71
2022-11-17T14:43:03.255Z,76.95
2022-11-17T14:46:26.383Z,77.50
2022-11-17T14:49:30.289Z,76.40
2022-11-17T14:52:33.481Z,77.04
2022-11-17T14:55:38.880Z,77.19
2022-11-17T14:58:41.858Z,77.46
2022-11-17T15:01:44.368Z,77.53
2022-11-17T15:04:50.870Z,78.02
2022-11-17T15:07:55.674Z,77.50
2022-11-17T15:10:58.353Z,77.53
2022-11-17T15:14:05.363Z,78.60
2022-11-17T15:17:13.925Z,79.17
2022-11-17T15:20:18.952Z,80.96
2022-11-17T15:23:21.369Z,79.99
2022-11-17T15:26:23.951Z,81.51
2022-11-17T15:29:26.490Z,81.39
2022-11-17T15:32:28.909Z,81.52
2022-11-17T15:35:32.760Z,82.34
2022-11-17T15:38:35.420Z,82.41
2022-11-17T15:41:37.955Z,82.24
2022-11-17T15:44:40.362Z,82.32
2022-11-17T15:47:42.855Z,83.24
2022-11-17T15:50:46.733Z,84.04
2022-11-17T15:53:51.356Z,85.09
2022-11-17T15:56:53.857Z,85.03
2022-11-17T15:59:56.337Z,84.40
2022-11-17T16:02:58.967Z,84.26
2022-11-17T16:06:03.106Z,84.34
2022-11-17T16:09:08.799Z,84.39
2022-11-17T16:12:11.454Z,84.41
2022-11-17T16:15:13.983Z,84.41
2022-11-17T16:18:16.708Z,84.09
2022-11-17T16:21:20.720Z,84.19
2022-11-17T16:24:23.241Z,84.48
2022-11-17T16:27:25.696Z,84.42
2022-11-17T16:30:32.757Z,84.74
2022-11-17T16:33:37.898Z,84.94
2022-11-17T16:36:43.968Z,85.58
2022-11-17T16:39:46.566Z,85.56
2022-11-17T16:42:49.387Z,85.68
2022-11-17T16:45:51.878Z,85.30
2022-11-17T16:48:55.039Z,85.21
2022-11-17T16:51:58.814Z,85.10
2022-11-17T16:55:04.810Z,85.24
2022-11-17T16:58:11.724Z,85.50
2022-11-17T17:01:16.304Z,85.46
2022-11-17T17:04:21.957Z,85.28
2022-11-17T17:07:25.900Z,85.61
2022-11-17T17:10:28.384Z,85.30
2022-11-17T17:13:31.438Z,85.90
2022-11-17T17:16:35.761Z,85.61
2022-11-17T17:19:38.605Z,85.72
2022-11-17T17:22:42.455Z,85.88
2022-11-17T17:25:45.005Z,86.25
2022-11-17T17:28:50.978Z,85.80
2022-11-17T17:31:53.440Z,86.20
2022-11-17T17:34:56.002Z,85.64
2022-11-17T17:38:00.077Z,85.64
2022-11-17T17:41:06.838Z,85.92
2022-11-17T17:44:15.032Z,85.75
2022-11-17T17:47:17.617Z,86.37
2022-11-17T17:50:28.872Z,86.43
2022-11-17T17:53:33.620Z,85.97
2022-11-17T17:56:36.274Z,86.60
2022-11-17T17:59:39.113Z,86.95
2022-11-17T18:02:41.899Z,87.19
2022-11-17T18:05:44.688Z,87.58
2022-11-17T18:08:49.253Z,87.28
2022-11-17T18:11:51.769Z,87.26
2022-11-17T18:14:54.541Z,87.35
2022-11-17T18:17:57.225Z,87.23
2022-11-17T18:21:01.208Z,87.31
2022-11-17T18:24:06.789Z,87.30
2022-11-17T18:27:09.624Z,87.25
2022-11-17T18:30:12.628Z,86.69
2022-11-17T18:33:16.265Z,87.08
2022-11-17T18:36:19.283Z,87.43
2022-11-17T18:39:24.085Z,87.44
2022-11-17T18:42:26.660Z,87.13
2022-11-17T18:45:29.423Z,86.97
2022-11-17T18:48:33.409Z,86.65
2022-11-17T18:51:35.957Z,86.46
2022-11-17T18:54:40.098Z,86.39
2022-11-17T18:57:45.063Z,86.77
2022-11-17T19:00:48.014Z,86.40
2022-11-17T19:03:52.451Z,86.57
2022-11-17T19:06:55.227Z,86.53
2022-11-17T19:10:00.017Z,86.82
2022-11-17T19:13:04.771Z,86.74
2022-11-17T19:16:09.800Z,86.62
2022-11-17T19:19:14.175Z,87.45
2022-11-17T19:22:17.574Z,87.84
2022-11-17T19:25:21.623Z,86.31
2022-11-17T19:28:25.116Z,85.87
2022-11-17T19:31:28.395Z,86.42
2022-11-17T19:34:31.458Z,87.17
2022-11-17T19:37:34.189Z,86.63
2022-11-17T19:40:38.771Z,86.68
2022-11-17T19:43:45.490Z,86.20
2022-11-17T19:46:48.245Z,86.79
2022-11-17T19:49:50.664Z,86.79
2022-11-17T19:52:53.441Z,86.64
2022-11-17T19:55:59.429Z,85.49
2022-11-17T19:59:21.309Z,85.62
2022-11-17T20:02:24.275Z,84.82
2022-11-17T20:05:27.109Z,85.04
2022-11-17T20:08:30.675Z,85.07
2022-11-17T20:11:35.388Z,84.78
2022-11-17T20:14:38.789Z,84.81
2022-11-17T20:17:41.497Z,84.60
2022-11-17T20:20:44.085Z,83.95
2022-11-17T20:23:47.645Z,84.08
2022-11-17T20:26:51.999Z,84.42
2022-11-17T20:29:55.263Z,84.28
2022-11-17T20:32:59.103Z,85.26
2022-11-17T20:36:02.049Z,84.41
2022-11-17T20:39:06.650Z,83.85
2022-11-17T20:42:10.799Z,84.40
2022-11-17T20:45:13.485Z,84.55
2022-11-17T20:48:16.162Z,84.72
2022-11-17T20:51:20.046Z,84.48
2022-11-17T20:54:22.798Z,84.18
2022-11-17T20:57:26.842Z,84.64
2022-11-17T21:00:29.652Z,84.93
2022-11-17T21:03:32.158Z,84.82
2022-11-17T21:06:34.881Z,85.15
2022-11-17T21:09:37.646Z,84.62
2022-11-17T21:12:41.483Z,85.34
2022-11-17T21:15:43.975Z,85.37
2022-11-17T21:18:48.232Z,85.75
2022-11-17T21:21:53.891Z,85.80
2022-11-17T21:24:56.406Z,86.68
2022-11-17T21:28:00.424Z,85.95
2022-11-17T21:31:06.174Z,86.47
2022-11-17T21:34:14.705Z,86.23
2022-11-17T21:37:17.382Z,86.23
2022-11-17T21:40:19.865Z,86.58
2022-11-17T21:43:23.676Z,87.12
2022-11-17T21:46:28.029Z,87.18
2022-11-17T21:49:30.705Z,86.97
2022-11-17T21:52:33.495Z,87.25
2022-11-17T21:55:35.958Z,87.21
2022-11-17T21:58:40.119Z,87.03
2022-11-17T22:01:43.173Z,86.81
2022-11-17T22:04:45.969Z,87.08
2022-11-17T22:07:48.639Z,87.48
2022-11-17T22:10:51.136Z,87.36
2022-11-17T22:13:54.999Z,87.34
2022-11-17T22:16:57.514Z,87.68
2022-11-17T22:20:00.056Z,87.74
2022-11-17T22:23:02.473Z,87.33
2022-11-17T22:26:06.454Z,87.93
2022-11-17T22:29:11.717Z,87.88
2022-11-17T22:32:14.237Z,88.11
2022-11-17T22:35:16.705Z,87.61
2022-11-17T22:38:19.369Z,88.00
2022-11-17T22:41:22.796Z,87.39
2022-11-17T22:44:26.687Z,87.55
2022-11-17T22:47:29.425Z,87.49
2022-11-17T22:50:32.651Z,87.45
2022-11-17T22:53:35.507Z,87.47
2022-11-17T22:56:37.982Z,87.70
2022-11-17T22:59:41.820Z,87.50
2022-11-17T23:02:44.373Z,87.54
2022-11-17T23:05:46.793Z,88.12
2022-11-17T23:08:49.613Z,87.92
2022-11-17T23:11:52.281Z,88.14
2022-11-17T23:14:56.207Z,88.35
2022-11-17T23:17:59.138Z,88.33
2022-11-17T23:21:04.488Z,88.13
2022-11-17T23:24:09.894Z,87.85
2022-11-17T23:27:12.465Z,88.20
2022-11-17T23:30:16.983Z,87.66
2022-11-17T23:33:19.718Z,87.52
2022-11-17T23:36:23.180Z,87.52
2022-11-17T23:39:25.703Z,87.23
2022-11-17T23:42:32.220Z,87.38
2022-11-17T23:45:36.582Z,87.34
2022-11-17T23:48:39.893Z,87.97
2022-11-17T23:51:42.692Z,87.59
2022-11-17T23:54:45.168Z,87.07
2022-11-17T23:57:47.613Z,87.03
